createdAt,value
2023-03-05T00:01:29.213Z,5.54
2023-03-05T00:03:57.379Z,5.54
2023-03-05T00:06:27.077Z,5.55
2023-03-05T00:08:56.788Z,5.56
2023-03-05T00:11:28.040Z,5.57
2023-03-05T00:13:56.469Z,5.56
2023-03-05T00:16:26.868Z,5.55
2023-03-05T00:18:55.642Z,5.53
2023-03-05T00:21:26.377Z,5.53
2023-03-05T00:23:55.254Z,5.52
2023-03-05T00:26:25.463Z,5.49
2023-03-05T00:28:53.378Z,5.41
2023-03-05T00:31:26.882Z,5.35
2023-03-05T00:33:56.620Z,5.30
2023-03-05T00:36:25.186Z,5.26
2023-03-05T00:38:53.287Z,5.22
2023-03-05T00:41:21.117Z,5.17
2023-03-05T00:43:49.181Z,5.14
2023-03-05T00:46:17.414Z,5.11
2023-03-05T00:48:45.637Z,5.10
2023-03-05T00:51:13.473Z,5.11
2023-03-05T00:53:41.331Z,5.12
2023-03-05T00:56:09.309Z,5.14
2023-03-05T00:58:38.342Z,5.16
2023-03-05T01:01:06.909Z,5.16
2023-03-05T01:03:36.878Z,5.17
2023-03-05T01:06:07.299Z,5.18
2023-03-05T01:08:35.998Z,5.19
2023-03-05T01:11:05.324Z,5.20
2023-03-05T01:13:33.072Z,5.17
2023-03-05T01:16:01.418Z,5.09
2023-03-05T01:18:29.305Z,5.02
2023-03-05T01:20:57.111Z,4.99
2023-03-05T01:23:25.087Z,4.97
2023-03-05T01:25:57.310Z,4.95
2023-03-05T01:28:25.243Z,4.89
2023-03-05T01:30:53.140Z,4.85
2023-03-05T01:33:20.910Z,4.81
2023-03-05T01:35:48.940Z,4.80
2023-03-05T01:38:17.271Z,4.78
2023-03-05T01:40:45.453Z,4.78
2023-03-05T01:43:13.410Z,4.79
2023-03-05T01:46:19.052Z,4.82
2023-03-05T01:49:02.751Z,4.87
2023-03-05T01:51:38.957Z,4.89
2023-03-05T01:54:07.971Z,4.89
2023-03-05T01:56:36.068Z,4.91
2023-03-05T01:59:04.349Z,4.87
2023-03-05T02:01:44.568Z,4.82
2023-03-05T02:04:15.551Z,4.78
2023-03-05T02:06:43.837Z,4.77
2023-03-05T02:09:12.238Z,4.75
2023-03-05T02:11:40.512Z,4.75
2023-03-05T02:14:10.132Z,4.74
2023-03-05T02:16:38.783Z,4.73
2023-03-05T02:19:09.851Z,4.69
2023-03-05T02:21:47.096Z,4.65
2023-03-05T02:24:19.289Z,4.60
2023-03-05T02:26:47.639Z,4.52
2023-03-05T02:29:19.375Z,4.42
2023-03-05T02:31:47.298Z,4.33
2023-03-05T02:34:15.193Z,4.31
2023-03-05T02:36:43.036Z,4.31
2023-03-05T02:39:11.463Z,4.30
2023-03-05T02:41:39.252Z,4.26
2023-03-05T02:44:07.282Z,4.23
2023-03-05T02:46:35.090Z,4.18
2023-03-05T02:49:03.241Z,4.13
2023-03-05T02:51:31.220Z,4.06
2023-03-05T02:53:59.913Z,3.97
2023-03-05T02:56:29.867Z,3.92
2023-03-05T02:58:57.742Z,3.90
2023-03-05T03:01:28.355Z,3.86
2023-03-05T03:03:56.532Z,3.79
2023-03-05T03:06:24.262Z,3.75
2023-03-05T03:08:52.082Z,3.72
2023-03-05T03:11:21.436Z,3.70
2023-03-05T03:13:49.261Z,3.68
2023-03-05T03:16:18.278Z,3.69
2023-03-05T03:18:47.557Z,3.68
2023-03-05T03:21:23.892Z,3.67
2023-03-05T03:23:51.837Z,3.66
2023-03-05T03:26:19.736Z,3.65
2023-03-05T03:28:47.506Z,3.67
2023-03-05T03:35:34.307Z,3.71
2023-03-05T03:38:02.211Z,3.74
2023-03-05T03:40:30.623Z,3.77
2023-03-05T03:42:58.563Z,3.76
2023-03-05T03:45:26.309Z,3.77
2023-03-05T03:47:54.109Z,3.79
2023-03-05T03:50:24.882Z,3.80
2023-03-05T03:52:52.788Z,3.79
2023-03-05T03:55:20.492Z,3.79
2023-03-05T03:57:48.445Z,3.81
2023-03-05T04:00:17.048Z,3.83
2023-03-05T04:02:44.871Z,3.84
2023-03-05T04:05:12.816Z,3.86
2023-03-05T04:07:40.906Z,3.88
2023-03-05T04:10:09.407Z,3.87
2023-03-05T04:12:37.401Z,3.88
2023-03-05T04:15:08.044Z,3.91
2023-03-05T04:17:35.790Z,3.94
2023-03-05T04:20:05.856Z,3.99
2023-03-05T04:22:33.610Z,4.03
2023-03-05T04:25:03.872Z,4.06
2023-03-05T04:27:31.699Z,4.11
2023-03-05T04:30:00.333Z,4.15
2023-03-05T04:32:29.843Z,4.16
2023-03-05T04:34:57.747Z,4.17
2023-03-05T04:37:26.285Z,4.17
2023-03-05T04:39:54.197Z,4.19
2023-03-05T04:42:21.904Z,4.17
2023-03-05T04:44:50.115Z,4.15
2023-03-05T04:47:18.818Z,4.16
2023-03-05T04:49:46.587Z,4.17
2023-03-05T04:52:15.095Z,4.20
2023-03-05T04:54:44.685Z,4.56
2023-03-05T04:57:12.750Z,6.09
2023-03-05T04:59:40.550Z,7.51
2023-03-05T05:02:08.372Z,8.37
2023-03-05T05:04:36.147Z,7.92
2023-03-05T05:07:04.829Z,7.28
2023-03-05T05:09:32.569Z,6.82
2023-03-05T05:12:00.304Z,6.50
2023-03-05T05:14:28.031Z,6.27
2023-03-05T05:16:55.991Z,6.08
2023-03-05T05:19:23.914Z,5.91
2023-03-05T05:21:51.929Z,5.75
2023-03-05T05:24:19.812Z,5.61
2023-03-05T05:26:47.587Z,5.47
2023-03-05T05:29:16.843Z,5.35
2023-03-05T05:31:45.064Z,5.23
2023-03-05T05:34:12.952Z,5.14
2023-03-05T05:36:40.671Z,5.06
2023-03-05T05:39:08.531Z,5.00
2023-03-05T05:41:36.528Z,4.93
2023-03-05T05:44:04.545Z,4.87
2023-03-05T05:46:32.313Z,4.84
2023-03-05T05:49:00.508Z,4.79
2023-03-05T05:51:28.353Z,4.71
2023-03-05T05:53:56.289Z,4.63
2023-03-05T05:56:24.409Z,4.56
2023-03-05T05:58:52.290Z,4.47
2023-03-05T06:01:24.940Z,4.36
2023-03-05T06:03:52.879Z,4.22
2023-03-05T06:06:23.062Z,4.47
2023-03-05T06:08:52.332Z,5.94
2023-03-05T06:11:20.345Z,7.18
2023-03-05T06:13:49.209Z,8.09
2023-03-05T06:16:19.948Z,7.91
2023-03-05T06:18:48.044Z,7.02
2023-03-05T06:21:17.311Z,6.28
2023-03-05T06:23:46.110Z,5.78
2023-03-05T06:26:17.246Z,5.43
2023-03-05T06:28:45.061Z,5.10
2023-03-05T06:31:17.380Z,5.37
2023-03-05T06:33:45.225Z,6.59
2023-03-05T06:36:15.910Z,7.45
2023-03-05T06:38:44.491Z,7.12
2023-03-05T06:41:17.765Z,6.25
2023-03-05T06:43:46.810Z,5.63
2023-03-05T06:46:35.615Z,5.16
2023-03-05T06:49:04.095Z,4.86
2023-03-05T06:51:39.521Z,5.65
2023-03-05T06:54:10.473Z,6.52
2023-03-05T06:56:40.306Z,6.19
2023-03-05T06:59:08.605Z,5.53
2023-03-05T07:01:36.932Z,5.05
2023-03-05T07:04:06.820Z,4.77
2023-03-05T07:06:36.891Z,5.64
2023-03-05T07:09:06.593Z,6.60
2023-03-05T07:11:34.832Z,6.35
2023-03-05T07:14:03.501Z,5.72
2023-03-05T07:16:33.408Z,5.18
2023-03-05T07:19:03.723Z,4.82
2023-03-05T07:21:33.491Z,4.54
2023-03-05T07:24:02.970Z,4.36
2023-03-05T07:26:33.374Z,4.20
2023-03-05T07:29:01.738Z,4.11
2023-03-05T07:31:33.396Z,4.05
2023-03-05T07:34:02.474Z,3.96
2023-03-05T07:36:31.143Z,3.87
2023-03-05T07:38:59.184Z,3.80
2023-03-05T07:41:27.043Z,3.71
2023-03-05T07:43:55.513Z,3.64
2023-03-05T07:46:28.834Z,3.60
2023-03-05T07:48:57.436Z,3.56
2023-03-05T07:51:27.049Z,3.55
2023-03-05T07:53:58.639Z,3.54
2023-03-05T07:56:32.309Z,3.53
2023-03-05T07:59:12.079Z,3.56
2023-03-05T08:01:41.159Z,3.52
2023-03-05T08:04:10.969Z,3.48
2023-03-05T08:06:40.972Z,3.41
2023-03-05T08:09:08.736Z,3.38
2023-03-05T08:11:36.747Z,3.40
2023-03-05T08:14:04.741Z,3.36
2023-03-05T08:16:34.420Z,3.30
2023-03-05T08:19:02.450Z,3.26
2023-03-05T08:21:33.889Z,3.93
2023-03-05T08:24:04.310Z,5.51
2023-03-05T08:26:37.932Z,6.26
2023-03-05T08:29:07.593Z,5.71
2023-03-05T08:31:36.150Z,5.14
2023-03-05T08:34:04.758Z,4.76
2023-03-05T08:36:32.548Z,4.46
2023-03-05T08:39:00.736Z,4.21
2023-03-05T08:41:28.628Z,4.01
2023-03-05T08:43:56.581Z,3.91
2023-03-05T08:46:25.148Z,3.83
2023-03-05T08:48:52.984Z,3.73
2023-03-05T08:51:25.811Z,3.62
2023-03-05T08:53:55.925Z,4.12
2023-03-05T08:56:23.648Z,5.41
2023-03-05T08:58:53.076Z,5.59
2023-03-05T14:02:36.936Z,5.11
2023-03-05T14:05:14.768Z,5.18
2023-03-05T14:07:43.075Z,5.33
2023-03-05T14:10:34.311Z,5.52
2023-03-05T14:13:05.324Z,5.64
2023-03-05T14:15:35.329Z,5.70
2023-03-05T14:18:12.196Z,5.70
2023-03-05T14:21:01.664Z,5.68
2023-03-05T14:23:32.550Z,5.61
2023-03-05T14:26:26.404Z,5.55
2023-03-05T14:29:00.427Z,5.47
2023-03-05T14:31:29.912Z,5.43
2023-03-05T14:34:04.334Z,5.39
2023-03-05T14:36:32.775Z,5.31
2023-03-05T14:39:01.070Z,5.24
2023-03-05T14:41:39.066Z,5.18
2023-03-05T14:44:15.866Z,5.13
2023-03-05T14:46:47.778Z,5.09
2023-03-05T14:49:16.576Z,5.01
2023-03-05T14:51:45.993Z,4.95
2023-03-05T14:54:25.966Z,4.92
2023-03-05T14:56:53.922Z,4.83
2023-03-05T14:59:23.968Z,4.75
2023-03-05T15:01:51.894Z,4.69
2023-03-05T15:04:20.225Z,4.67
2023-03-05T15:06:50.967Z,4.65
2023-03-05T15:09:21.074Z,4.65
2023-03-05T15:11:50.242Z,4.64
2023-03-05T15:14:18.348Z,4.61
2023-03-05T15:16:46.828Z,4.60
2023-03-05T15:19:14.789Z,4.61
2023-03-05T15:21:42.639Z,4.59
2023-03-05T15:24:11.486Z,4.58
2023-03-05T15:26:40.119Z,4.54
2023-03-05T15:29:07.971Z,4.49
2023-03-05T15:31:38.777Z,4.49
2023-03-05T15:34:06.936Z,4.50
2023-03-05T15:36:34.729Z,4.54
2023-03-05T15:39:02.722Z,4.59
2023-03-05T15:41:30.635Z,4.64
2023-03-05T15:43:58.540Z,4.65
2023-03-05T15:46:26.593Z,4.60
2023-03-05T15:48:54.821Z,4.55
2023-03-05T15:51:23.261Z,4.49
2023-03-05T15:53:51.515Z,4.43
2023-03-05T15:56:20.097Z,4.39
2023-03-05T15:58:50.863Z,4.33
2023-03-05T16:01:23.484Z,4.29
2023-03-05T16:03:53.746Z,4.25
2023-03-05T16:06:24.324Z,4.23
2023-03-05T16:08:55.960Z,4.22
2023-03-05T16:11:23.892Z,4.23
2023-03-05T16:14:25.901Z,4.21
2023-03-05T16:16:56.100Z,4.19
2023-03-05T16:22:28.106Z,4.17
2023-03-05T16:24:56.830Z,4.50
2023-03-05T16:27:24.990Z,6.09
2023-03-05T16:29:53.423Z,7.52
2023-03-05T16:32:21.631Z,8.10
2023-03-05T16:34:49.710Z,7.61
2023-03-05T16:37:22.818Z,7.04
2023-03-05T16:39:51.146Z,6.60
2023-03-05T16:42:18.994Z,6.28
2023-03-05T16:44:47.520Z,5.99
2023-03-05T16:47:15.872Z,5.77
2023-03-05T16:49:43.695Z,5.57
2023-03-05T16:52:18.868Z,5.39
2023-03-05T16:54:47.793Z,5.21
2023-03-05T17:00:42.210Z,4.83
2023-03-05T17:03:10.580Z,4.69
2023-03-05T17:06:15.289Z,4.96
2023-03-05T17:08:45.747Z,6.68
2023-03-05T17:11:16.777Z,7.87
2023-03-05T17:13:47.084Z,8.49
2023-03-05T17:16:19.368Z,7.92
2023-03-05T17:18:47.903Z,7.18
2023-03-05T17:21:16.239Z,6.66
2023-03-05T17:23:45.110Z,6.32
2023-03-05T17:26:16.160Z,6.03
2023-03-05T17:28:44.974Z,5.71
2023-03-05T17:31:14.504Z,5.46
2023-03-05T17:33:42.713Z,5.24
2023-03-05T17:36:19.139Z,5.09
2023-03-05T17:38:47.791Z,4.97
2023-03-05T17:41:17.038Z,4.87
2023-03-05T17:43:45.426Z,4.77
2023-03-05T17:46:13.358Z,4.67
2023-03-05T17:48:41.805Z,4.55
2023-03-05T17:51:12.595Z,4.76
2023-03-05T17:53:41.047Z,6.25
2023-03-05T17:56:14.455Z,7.59
2023-03-05T17:58:42.366Z,8.20
2023-03-05T18:01:10.630Z,7.63
2023-03-05T18:03:39.597Z,6.94
2023-03-05T18:06:07.385Z,6.39
2023-03-05T18:08:35.649Z,5.99
2023-03-05T18:11:03.597Z,5.70
2023-03-05T18:13:32.015Z,5.44
2023-03-05T18:16:01.190Z,5.22
2023-03-05T18:18:29.097Z,5.03
2023-03-05T18:20:57.755Z,4.88
2023-03-05T18:23:26.987Z,4.75
2023-03-05T18:25:55.661Z,4.63
2023-03-05T18:28:25.974Z,4.53
2023-03-05T18:30:54.360Z,4.69
2023-03-05T18:33:25.004Z,6.07
2023-03-05T18:35:53.733Z,7.41
2023-03-05T18:38:23.093Z,8.01
2023-03-05T18:40:52.258Z,7.50
2023-03-05T18:43:21.175Z,6.82
2023-03-05T18:45:50.512Z,6.32
2023-03-05T18:48:18.860Z,5.95
2023-03-05T18:50:49.889Z,5.70
2023-03-05T18:53:18.729Z,5.46
2023-03-05T18:55:46.717Z,5.25
2023-03-05T18:58:15.501Z,5.06
2023-03-05T19:00:44.931Z,4.90
2023-03-05T19:03:14.629Z,4.75
2023-03-05T19:05:46.205Z,4.59
2023-03-05T19:08:16.456Z,4.78
2023-03-05T19:10:47.619Z,6.16
2023-03-05T19:13:44.117Z,7.29
2023-03-05T19:16:17.578Z,7.71
2023-03-05T19:19:12.398Z,6.99
2023-03-05T19:21:48.259Z,6.12
2023-03-05T19:24:16.881Z,5.60
2023-03-05T19:26:45.243Z,5.26
2023-03-05T19:29:13.107Z,5.01
2023-03-05T19:31:41.775Z,4.78
2023-03-05T19:34:11.477Z,4.58
2023-03-05T19:36:39.584Z,4.42
2023-03-05T19:39:08.246Z,4.61
2023-03-05T19:41:37.559Z,6.04
2023-03-05T19:44:06.311Z,7.26
2023-03-05T19:46:34.120Z,7.74
2023-03-05T19:49:02.088Z,7.21
2023-03-05T19:51:30.075Z,6.51
2023-03-05T19:53:59.365Z,5.97
2023-03-05T19:56:27.135Z,5.57
2023-03-05T19:58:54.957Z,5.29
2023-03-05T20:01:27.554Z,5.01
2023-03-05T20:03:57.660Z,4.79
2023-03-05T20:06:27.158Z,4.60
2023-03-05T20:08:55.403Z,4.77
2023-03-05T20:11:23.661Z,6.31
2023-03-05T20:13:52.751Z,7.57
2023-03-05T20:16:23.765Z,8.13
2023-03-05T20:18:54.632Z,7.58
2023-03-05T20:21:25.623Z,6.78
2023-03-05T20:23:55.245Z,6.17
2023-03-05T20:26:25.753Z,5.69
2023-03-05T20:28:54.499Z,5.35
2023-03-05T20:31:24.743Z,5.04
2023-03-05T20:33:53.449Z,4.75
2023-03-05T20:36:21.222Z,4.52
2023-03-05T20:38:49.137Z,4.61
2023-03-05T20:41:18.906Z,5.82
2023-03-05T20:43:49.213Z,6.92
2023-03-05T20:46:22.877Z,7.75
2023-03-05T20:48:53.263Z,8.16
2023-03-05T20:51:27.430Z,7.38
2023-03-05T20:53:58.485Z,6.50
2023-03-05T20:56:29.247Z,5.83
2023-03-05T20:58:58.344Z,5.34
2023-03-05T21:01:27.588Z,4.97
2023-03-05T21:03:59.367Z,4.71
2023-03-05T21:06:28.305Z,4.83
2023-03-05T21:08:56.643Z,6.31
2023-03-05T21:11:25.042Z,7.67
2023-03-05T21:13:53.256Z,8.23
2023-03-05T21:16:26.047Z,7.56
2023-03-05T21:18:55.960Z,6.74
2023-03-05T21:21:24.661Z,6.08
2023-03-05T21:23:53.429Z,5.58
2023-03-05T21:26:21.924Z,5.20
2023-03-05T21:28:49.709Z,4.92
2023-03-05T21:31:19.993Z,4.71
2023-03-05T21:33:47.863Z,4.55
2023-03-05T21:36:18.993Z,4.42
2023-03-05T21:38:47.859Z,4.66
2023-03-05T21:41:18.083Z,6.12
2023-03-05T21:43:46.181Z,7.52
2023-03-05T21:46:14.181Z,8.12
2023-03-05T21:48:41.955Z,7.51
2023-03-05T21:51:48.897Z,6.79
2023-03-05T21:54:45.215Z,6.02
2023-03-05T21:57:13.303Z,5.66
2023-03-05T21:59:42.146Z,5.40
2023-03-05T22:02:14.204Z,5.20
2023-03-05T22:04:42.413Z,5.01
2023-03-05T22:07:10.460Z,4.86
2023-03-05T22:09:38.336Z,4.73
2023-03-05T22:12:29.576Z,4.60
2023-03-05T22:15:08.438Z,4.45
2023-03-05T22:17:36.331Z,4.60
2023-03-05T22:20:05.116Z,6.05
2023-03-05T22:22:32.978Z,7.46
2023-03-05T22:25:00.745Z,8.04
2023-03-05T22:27:28.554Z,7.43
2023-03-05T22:29:56.488Z,6.70
2023-03-05T22:32:24.232Z,6.16
2023-03-05T22:34:56.335Z,5.82
2023-03-05T22:37:24.068Z,5.53
2023-03-05T22:39:55.788Z,5.29
2023-03-05T22:42:24.460Z,5.10
2023-03-05T22:44:58.737Z,4.93
2023-03-05T22:47:27.261Z,4.74
2023-03-05T22:49:55.029Z,4.62
2023-03-05T22:52:22.856Z,4.52
2023-03-05T22:54:50.569Z,4.43
2023-03-05T22:57:18.363Z,4.35
2023-03-05T22:59:47.209Z,4.28
2023-03-05T23:02:15.178Z,4.21
2023-03-05T23:04:49.266Z,4.16
2023-03-05T23:07:28.520Z,4.38
2023-03-05T23:10:00.934Z,5.93
2023-03-05T23:12:31.018Z,7.40
2023-03-05T23:15:00.806Z,8.00
2023-03-05T23:17:29.097Z,7.40
2023-03-05T23:19:56.990Z,6.72
2023-03-05T23:22:24.801Z,6.23
2023-03-05T23:24:52.659Z,5.86
2023-03-05T23:27:20.456Z,5.55
2023-03-05T23:30:21.229Z,5.29
2023-03-05T23:33:15.094Z,5.02
2023-03-05T23:35:53.069Z,4.79
2023-03-05T23:38:22.138Z,4.62
2023-03-05T23:40:54.070Z,4.48
2023-03-05T23:43:24.646Z,4.35
2023-03-05T23:45:57.017Z,4.23
2023-03-05T23:48:26.956Z,4.12
2023-03-05T23:50:55.530Z,4.04
2023-03-05T23:53:25.980Z,3.93
2023-03-05T23:55:55.024Z,3.86
2023-03-05T23:58:23.375Z,3.79
